sensor_id;sensor_type;location;lat;lon;timestamp;temperature;humidity
336;DHT22;156;48.738;9.228;2022-12-29T00:00:13;8.10;1.00
336;DHT22;156;48.738;9.228;2022-12-29T00:02:40;8.20;1.00
336;DHT22;156;48.738;9.228;2022-12-29T00:05:07;8.20;1.00
336;DHT22;156;48.738;9.228;2022-12-29T00:07:35;8.20;1.00
336;DHT22;156;48.738;9.228;2022-12-29T00:10:03;8.20;1.00
336;DHT22;156;48.738;9.228;2022-12-29T00:12:30;8.20;1.00
336;DHT22;156;48.738;9.228;2022-12-29T00:15:17;8.20;1.00
336;DHT22;156;48.738;9.228;2022-12-29T00:18:01;8.20;1.00
336;DHT22;156;48.738;9.228;2022-12-29T00:20:28;8.20;1.00
336;DHT22;156;48.738;9.228;2022-12-29T00:23:13;8.20;1.00
336;DHT22;156;48.738;9.228;2022-12-29T00:25:55;8.20;1.00
336;DHT22;156;48.738;9.228;2022-12-29T00:28:39;8.10;1.00
336;DHT22;156;48.738;9.228;2022-12-29T00:31:32;8.10;1.00
336;DHT22;156;48.738;9.228;2022-12-29T00:34:16;8.20;1.00
336;DHT22;156;48.738;9.228;2022-12-29T00:37:01;8.30;1.00
336;DHT22;156;48.738;9.228;2022-12-29T00:39:29;8.50;1.00
336;DHT22;156;48.738;9.228;2022-12-29T00:42:13;8.70;1.00
336;DHT22;156;48.738;9.228;2022-12-29T00:44:57;8.90;1.00
336;DHT22;156;48.738;9.228;2022-12-29T00:47:24;9.10;1.00
336;DHT22;156;48.738;9.228;2022-12-29T00:49:51;9.10;1.00
336;DHT22;156;48.738;9.228;2022-12-29T00:52:17;9.20;1.00
336;DHT22;156;48.738;9.228;2022-12-29T00:54:45;9.20;1.00
336;DHT22;156;48.738;9.228;2022-12-29T00:57:12;9.20;1.00
336;DHT22;156;48.738;9.228;2022-12-29T00:59:40;9.40;1.00
336;DHT22;156;48.738;9.228;2022-12-29T01:02:08;9.40;1.00
336;DHT22;156;48.738;9.228;2022-12-29T01:04:36;9.40;1.00
336;DHT22;156;48.738;9.228;2022-12-29T01:07:03;9.40;1.00
336;DHT22;156;48.738;9.228;2022-12-29T01:09:31;9.40;1.00
336;DHT22;156;48.738;9.228;2022-12-29T01:12:17;9.30;1.00
336;DHT22;156;48.738;9.228;2022-12-29T01:15:06;9.40;1.00
336;DHT22;156;48.738;9.228;2022-12-29T01:17:33;9.40;1.00
336;DHT22;156;48.738;9.228;2022-12-29T01:20:00;9.50;1.00
336;DHT22;156;48.738;9.228;2022-12-29T01:22:27;9.60;1.00
336;DHT22;156;48.738;9.228;2022-12-29T01:24:54;9.70;1.00
336;DHT22;156;48.738;9.228;2022-12-29T01:27:22;9.70;1.00
336;DHT22;156;48.738;9.228;2022-12-29T01:29:49;9.80;1.00
336;DHT22;156;48.738;9.228;2022-12-29T01:32:16;9.80;1.00
336;DHT22;156;48.738;9.228;2022-12-29T01:34:43;9.90;1.00
336;DHT22;156;48.738;9.228;2022-12-29T01:37:09;9.90;1.00
336;DHT22;156;48.738;9.228;2022-12-29T01:39:36;10.00;1.00
336;DHT22;156;48.738;9.228;2022-12-29T01:42:03;10.00;1.00
336;DHT22;156;48.738;9.228;2022-12-29T01:44:56;10.00;1.00
336;DHT22;156;48.738;9.228;2022-12-29T01:47:30;10.10;1.00
336;DHT22;156;48.738;9.228;2022-12-29T01:50:00;10.00;1.00
336;DHT22;156;48.738;9.228;2022-12-29T01:52:30;10.10;1.00
336;DHT22;156;48.738;9.228;2022-12-29T01:54:59;10.10;1.00
336;DHT22;156;48.738;9.228;2022-12-29T01:57:29;10.00;1.00
336;DHT22;156;48.738;9.228;2022-12-29T02:00:02;10.10;1.00
336;DHT22;156;48.738;9.228;2022-12-29T02:02:30;10.10;1.00
336;DHT22;156;48.738;9.228;2022-12-29T02:04:58;10.10;1.00
336;DHT22;156;48.738;9.228;2022-12-29T02:07:28;10.10;1.00
336;DHT22;156;48.738;9.228;2022-12-29T02:09:55;10.10;1.00
336;DHT22;156;48.738;9.228;2022-12-29T02:12:23;10.20;1.00
336;DHT22;156;48.738;9.228;2022-12-29T02:14:53;10.20;1.00
336;DHT22;156;48.738;9.228;2022-12-29T02:17:35;10.20;1.00
336;DHT22;156;48.738;9.228;2022-12-29T02:20:28;10.20;1.00
336;DHT22;156;48.738;9.228;2022-12-29T02:23:17;10.20;1.00
336;DHT22;156;48.738;9.228;2022-12-29T02:26:05;10.20;1.00
336;DHT22;156;48.738;9.228;2022-12-29T02:31:42;10.30;1.00
336;DHT22;156;48.738;9.228;2022-12-29T02:34:23;10.30;1.00
336;DHT22;156;48.738;9.228;2022-12-29T02:37:00;10.30;1.00
336;DHT22;156;48.738;9.228;2022-12-29T02:39:36;10.30;1.00
336;DHT22;156;48.738;9.228;2022-12-29T02:42:11;10.30;1.00
336;DHT22;156;48.738;9.228;2022-12-29T02:44:45;10.30;1.00
336;DHT22;156;48.738;9.228;2022-12-29T02:47:19;10.30;1.00
336;DHT22;156;48.738;9.228;2022-12-29T02:49:51;10.30;1.00
336;DHT22;156;48.738;9.228;2022-12-29T02:52:25;10.30;1.00
336;DHT22;156;48.738;9.228;2022-12-29T02:54:53;10.30;1.00
336;DHT22;156;48.738;9.228;2022-12-29T02:57:29;10.30;1.00
336;DHT22;156;48.738;9.228;2022-12-29T03:00:00;10.40;1.00
336;DHT22;156;48.738;9.228;2022-12-29T03:02:44;10.40;1.00
336;DHT22;156;48.738;9.228;2022-12-29T03:05:21;10.30;1.00
336;DHT22;156;48.738;9.228;2022-12-29T03:07:57;10.40;1.00
336;DHT22;156;48.738;9.228;2022-12-29T03:10:35;10.40;1.00
336;DHT22;156;48.738;9.228;2022-12-29T03:13:10;10.40;1.00
336;DHT22;156;48.738;9.228;2022-12-29T03:16:04;10.40;1.00
336;DHT22;156;48.738;9.228;2022-12-29T03:18:50;10.40;1.00
336;DHT22;156;48.738;9.228;2022-12-29T03:21:26;10.30;1.00
336;DHT22;156;48.738;9.228;2022-12-29T03:24:11;10.30;1.00
336;DHT22;156;48.738;9.228;2022-12-29T03:26:38;10.30;1.00
336;DHT22;156;48.738;9.228;2022-12-29T03:29:08;10.30;1.00
336;DHT22;156;48.738;9.228;2022-12-29T03:31:37;10.30;1.00
336;DHT22;156;48.738;9.228;2022-12-29T03:34:07;10.30;1.00
336;DHT22;156;48.738;9.228;2022-12-29T03:36:40;10.30;1.00
336;DHT22;156;48.738;9.228;2022-12-29T03:39:10;10.30;1.00
336;DHT22;156;48.738;9.228;2022-12-29T03:41:39;10.30;1.00
336;DHT22;156;48.738;9.228;2022-12-29T03:44:07;10.30;1.00
336;DHT22;156;48.738;9.228;2022-12-29T03:46:34;10.40;1.00
336;DHT22;156;48.738;9.228;2022-12-29T03:49:01;10.40;1.00
336;DHT22;156;48.738;9.228;2022-12-29T03:51:29;10.40;1.00
336;DHT22;156;48.738;9.228;2022-12-29T03:53:56;10.50;1.00
336;DHT22;156;48.738;9.228;2022-12-29T03:56:23;10.40;1.00
336;DHT22;156;48.738;9.228;2022-12-29T03:58:50;10.40;1.00
336;DHT22;156;48.738;9.228;2022-12-29T04:01:17;10.40;1.00
336;DHT22;156;48.738;9.228;2022-12-29T04:03:44;10.40;1.00
336;DHT22;156;48.738;9.228;2022-12-29T04:06:10;10.40;1.00
336;DHT22;156;48.738;9.228;2022-12-29T04:08:39;10.50;1.00
336;DHT22;156;48.738;9.228;2022-12-29T04:11:05;10.40;1.00
336;DHT22;156;48.738;9.228;2022-12-29T04:13:32;10.50;1.00
336;DHT22;156;48.738;9.228;2022-12-29T04:15:59;10.40;1.00
336;DHT22;156;48.738;9.228;2022-12-29T04:18:26;10.50;1.00
336;DHT22;156;48.738;9.228;2022-12-29T04:20:53;10.40;1.00
336;DHT22;156;48.738;9.228;2022-12-29T04:23:26;10.40;1.00
336;DHT22;156;48.738;9.228;2022-12-29T04:25:54;10.40;1.00
336;DHT22;156;48.738;9.228;2022-12-29T04:28:22;10.40;1.00
336;DHT22;156;48.738;9.228;2022-12-29T04:30:49;10.50;1.00
336;DHT22;156;48.738;9.228;2022-12-29T04:33:16;10.60;1.00
336;DHT22;156;48.738;9.228;2022-12-29T04:35:43;10.60;1.00
336;DHT22;156;48.738;9.228;2022-12-29T04:38:10;10.60;1.00
336;DHT22;156;48.738;9.228;2022-12-29T04:40:38;10.60;1.00
336;DHT22;156;48.738;9.228;2022-12-29T04:43:06;10.60;1.00
336;DHT22;156;48.738;9.228;2022-12-29T04:45:34;10.50;1.00
336;DHT22;156;48.738;9.228;2022-12-29T04:48:01;10.50;1.00
336;DHT22;156;48.738;9.228;2022-12-29T04:50:28;10.60;1.00
336;DHT22;156;48.738;9.228;2022-12-29T04:52:55;10.60;1.00
336;DHT22;156;48.738;9.228;2022-12-29T04:55:21;10.50;1.00
336;DHT22;156;48.738;9.228;2022-12-29T04:57:48;10.50;1.00
336;DHT22;156;48.738;9.228;2022-12-29T05:00:17;10.50;1.00
336;DHT22;156;48.738;9.228;2022-12-29T05:02:44;10.40;1.00
336;DHT22;156;48.738;9.228;2022-12-29T05:05:10;10.40;1.00
336;DHT22;156;48.738;9.228;2022-12-29T05:07:37;10.40;1.00
336;DHT22;156;48.738;9.228;2022-12-29T05:10:05;10.40;1.00
336;DHT22;156;48.738;9.228;2022-12-29T05:12:34;10.40;1.00
336;DHT22;156;48.738;9.228;2022-12-29T05:15:01;10.40;1.00
336;DHT22;156;48.738;9.228;2022-12-29T05:17:30;10.40;1.00
336;DHT22;156;48.738;9.228;2022-12-29T05:19:57;10.40;1.00
336;DHT22;156;48.738;9.228;2022-12-29T05:22:24;10.40;1.00
336;DHT22;156;48.738;9.228;2022-12-29T05:24:51;10.30;1.00
336;DHT22;156;48.738;9.228;2022-12-29T05:27:18;10.40;1.00
336;DHT22;156;48.738;9.228;2022-12-29T05:29:44;10.40;1.00
336;DHT22;156;48.738;9.228;2022-12-29T05:32:11;10.30;1.00
336;DHT22;156;48.738;9.228;2022-12-29T05:34:40;10.30;1.00
336;DHT22;156;48.738;9.228;2022-12-29T05:37:06;10.30;1.00
336;DHT22;156;48.738;9.228;2022-12-29T05:39:33;10.40;1.00
336;DHT22;156;48.738;9.228;2022-12-29T05:42:00;10.40;1.00
336;DHT22;156;48.738;9.228;2022-12-29T05:44:27;10.40;1.00
336;DHT22;156;48.738;9.228;2022-12-29T05:46:54;10.40;1.00
336;DHT22;156;48.738;9.228;2022-12-29T05:49:21;10.40;1.00
336;DHT22;156;48.738;9.228;2022-12-29T05:51:49;10.40;1.00
336;DHT22;156;48.738;9.228;2022-12-29T05:54:16;10.50;1.00
336;DHT22;156;48.738;9.228;2022-12-29T05:56:43;10.40;1.00
336;DHT22;156;48.738;9.228;2022-12-29T05:59:09;10.60;1.00
336;DHT22;156;48.738;9.228;2022-12-29T06:01:36;10.50;1.00
336;DHT22;156;48.738;9.228;2022-12-29T06:04:03;10.50;1.00
336;DHT22;156;48.738;9.228;2022-12-29T06:06:30;10.40;1.00
336;DHT22;156;48.738;9.228;2022-12-29T06:08:58;10.50;1.00
336;DHT22;156;48.738;9.228;2022-12-29T06:11:25;10.50;1.00
336;DHT22;156;48.738;9.228;2022-12-29T06:13:52;10.60;1.00
336;DHT22;156;48.738;9.228;2022-12-29T06:16:19;10.60;1.00
336;DHT22;156;48.738;9.228;2022-12-29T06:18:46;10.50;1.00
336;DHT22;156;48.738;9.228;2022-12-29T06:21:13;10.40;1.00
336;DHT22;156;48.738;9.228;2022-12-29T06:23:40;10.50;1.00
336;DHT22;156;48.738;9.228;2022-12-29T06:26:08;10.40;1.00
336;DHT22;156;48.738;9.228;2022-12-29T06:28:35;10.40;1.00
336;DHT22;156;48.738;9.228;2022-12-29T06:31:02;10.40;1.00
336;DHT22;156;48.738;9.228;2022-12-29T06:33:29;10.30;1.00
336;DHT22;156;48.738;9.228;2022-12-29T06:35:55;10.30;1.00
336;DHT22;156;48.738;9.228;2022-12-29T06:38:22;10.30;1.00
336;DHT22;156;48.738;9.228;2022-12-29T06:40:49;10.20;1.00
336;DHT22;156;48.738;9.228;2022-12-29T06:43:17;10.20;1.00
336;DHT22;156;48.738;9.228;2022-12-29T06:45:44;10.20;1.00
336;DHT22;156;48.738;9.228;2022-12-29T06:48:11;10.10;1.00
336;DHT22;156;48.738;9.228;2022-12-29T06:50:38;10.20;1.00
336;DHT22;156;48.738;9.228;2022-12-29T06:53:05;10.20;1.00
336;DHT22;156;48.738;9.228;2022-12-29T06:55:32;10.20;1.00
336;DHT22;156;48.738;9.228;2022-12-29T06:57:59;10.20;1.00
336;DHT22;156;48.738;9.228;2022-12-29T07:00:28;10.20;1.00
336;DHT22;156;48.738;9.228;2022-12-29T07:02:55;10.20;1.00
336;DHT22;156;48.738;9.228;2022-12-29T07:05:23;10.20;1.00
336;DHT22;156;48.738;9.228;2022-12-29T07:07:51;10.10;1.00
336;DHT22;156;48.738;9.228;2022-12-29T07:10:18;10.10;1.00
336;DHT22;156;48.738;9.228;2022-12-29T07:12:44;10.20;1.00
336;DHT22;156;48.738;9.228;2022-12-29T07:15:11;10.10;1.00
336;DHT22;156;48.738;9.228;2022-12-29T07:17:39;10.10;1.00
336;DHT22;156;48.738;9.228;2022-12-29T07:20:08;10.10;1.00
336;DHT22;156;48.738;9.228;2022-12-29T07:22:35;10.20;1.00
336;DHT22;156;48.738;9.228;2022-12-29T07:25:02;10.20;1.00
336;DHT22;156;48.738;9.228;2022-12-29T07:27:29;10.10;1.00
336;DHT22;156;48.738;9.228;2022-12-29T07:29:56;10.20;1.00
336;DHT22;156;48.738;9.228;2022-12-29T07:32:22;10.20;1.00
336;DHT22;156;48.738;9.228;2022-12-29T07:34:51;10.20;1.00
336;DHT22;156;48.738;9.228;2022-12-29T07:37:18;10.20;1.00
336;DHT22;156;48.738;9.228;2022-12-29T07:39:45;10.20;1.00
336;DHT22;156;48.738;9.228;2022-12-29T07:42:12;10.30;1.00
336;DHT22;156;48.738;9.228;2022-12-29T07:44:39;10.30;1.00
336;DHT22;156;48.738;9.228;2022-12-29T07:47:06;10.30;1.00
336;DHT22;156;48.738;9.228;2022-12-29T07:49:33;10.30;1.00
336;DHT22;156;48.738;9.228;2022-12-29T07:52:01;10.20;1.00
336;DHT22;156;48.738;9.228;2022-12-29T07:54:28;10.30;1.00
336;DHT22;156;48.738;9.228;2022-12-29T07:56:55;10.30;1.00
336;DHT22;156;48.738;9.228;2022-12-29T07:59:23;10.40;1.00
336;DHT22;156;48.738;9.228;2022-12-29T08:01:49;10.40;1.00
336;DHT22;156;48.738;9.228;2022-12-29T08:04:16;10.40;1.00
336;DHT22;156;48.738;9.228;2022-12-29T08:06:43;10.40;1.00
336;DHT22;156;48.738;9.228;2022-12-29T08:09:13;10.40;1.00
336;DHT22;156;48.738;9.228;2022-12-29T08:11:40;10.40;1.00
336;DHT22;156;48.738;9.228;2022-12-29T08:14:08;10.40;1.00
336;DHT22;156;48.738;9.228;2022-12-29T08:16:35;10.50;1.00
336;DHT22;156;48.738;9.228;2022-12-29T08:19:02;10.50;1.00
336;DHT22;156;48.738;9.228;2022-12-29T08:21:31;10.60;1.00
336;DHT22;156;48.738;9.228;2022-12-29T08:23:58;10.70;1.00
336;DHT22;156;48.738;9.228;2022-12-29T08:26:26;10.70;1.00
336;DHT22;156;48.738;9.228;2022-12-29T08:28:54;10.70;1.00
336;DHT22;156;48.738;9.228;2022-12-29T08:31:21;10.80;1.00
336;DHT22;156;48.738;9.228;2022-12-29T08:33:48;10.80;1.00
336;DHT22;156;48.738;9.228;2022-12-29T08:36:15;10.80;1.00
336;DHT22;156;48.738;9.228;2022-12-29T08:38:42;10.80;1.00
336;DHT22;156;48.738;9.228;2022-12-29T08:41:09;10.90;1.00
336;DHT22;156;48.738;9.228;2022-12-29T08:43:37;10.90;1.00
336;DHT22;156;48.738;9.228;2022-12-29T08:46:04;10.90;1.00
336;DHT22;156;48.738;9.228;2022-12-29T08:48:31;10.90;1.00
336;DHT22;156;48.738;9.228;2022-12-29T08:50:57;10.90;1.00
336;DHT22;156;48.738;9.228;2022-12-29T08:53:24;10.90;1.00
336;DHT22;156;48.738;9.228;2022-12-29T08:55:56;10.90;1.00
336;DHT22;156;48.738;9.228;2022-12-29T08:58:23;11.00;1.00
336;DHT22;156;48.738;9.228;2022-12-29T09:00:52;11.00;1.00
336;DHT22;156;48.738;9.228;2022-12-29T09:03:19;11.00;1.00
336;DHT22;156;48.738;9.228;2022-12-29T09:05:47;11.00;1.00
336;DHT22;156;48.738;9.228;2022-12-29T09:08:15;11.00;1.00
336;DHT22;156;48.738;9.228;2022-12-29T09:10:42;11.00;1.00
336;DHT22;156;48.738;9.228;2022-12-29T09:13:09;11.10;1.00
336;DHT22;156;48.738;9.228;2022-12-29T09:15:35;11.10;1.00
336;DHT22;156;48.738;9.228;2022-12-29T09:18:04;11.10;1.00
336;DHT22;156;48.738;9.228;2022-12-29T09:20:31;11.20;1.00
336;DHT22;156;48.738;9.228;2022-12-29T09:22:59;11.30;1.00
336;DHT22;156;48.738;9.228;2022-12-29T09:25:26;11.40;1.00
336;DHT22;156;48.738;9.228;2022-12-29T09:27:53;11.50;1.00
336;DHT22;156;48.738;9.228;2022-12-29T09:30:21;11.50;1.00
336;DHT22;156;48.738;9.228;2022-12-29T09:32:49;11.50;1.00
336;DHT22;156;48.738;9.228;2022-12-29T09:35:18;11.50;1.00
336;DHT22;156;48.738;9.228;2022-12-29T09:37:45;11.50;1.00
336;DHT22;156;48.738;9.228;2022-12-29T09:40:24;11.50;1.00
336;DHT22;156;48.738;9.228;2022-12-29T09:43:05;11.50;1.00
336;DHT22;156;48.738;9.228;2022-12-29T09:45:43;11.50;1.00
336;DHT22;156;48.738;9.228;2022-12-29T09:48:15;11.60;1.00
336;DHT22;156;48.738;9.228;2022-12-29T09:50:48;11.60;1.00
336;DHT22;156;48.738;9.228;2022-12-29T09:53:18;11.60;1.00
336;DHT22;156;48.738;9.228;2022-12-29T09:55:50;11.60;1.00
336;DHT22;156;48.738;9.228;2022-12-29T09:58:22;11.60;1.00
336;DHT22;156;48.738;9.228;2022-12-29T10:00:56;11.70;1.00
336;DHT22;156;48.738;9.228;2022-12-29T10:03:27;11.60;1.00
336;DHT22;156;48.738;9.228;2022-12-29T10:06:04;11.60;1.00
336;DHT22;156;48.738;9.228;2022-12-29T10:08:38;11.60;1.00
336;DHT22;156;48.738;9.228;2022-12-29T10:11:13;11.60;1.00
336;DHT22;156;48.738;9.228;2022-12-29T10:13:55;11.60;1.00
336;DHT22;156;48.738;9.228;2022-12-29T10:16:29;11.60;1.00
336;DHT22;156;48.738;9.228;2022-12-29T10:19:17;11.60;1.00
336;DHT22;156;48.738;9.228;2022-12-29T10:21:58;11.60;1.00
336;DHT22;156;48.738;9.228;2022-12-29T10:24:28;11.60;1.00
336;DHT22;156;48.738;9.228;2022-12-29T10:26:58;11.60;1.00
336;DHT22;156;48.738;9.228;2022-12-29T10:29:29;11.60;1.00
336;DHT22;156;48.738;9.228;2022-12-29T10:32:00;11.60;1.00
336;DHT22;156;48.738;9.228;2022-12-29T10:34:31;11.60;1.00
336;DHT22;156;48.738;9.228;2022-12-29T10:37:04;11.70;1.00
336;DHT22;156;48.738;9.228;2022-12-29T10:39:36;11.70;1.00
336;DHT22;156;48.738;9.228;2022-12-29T10:42:13;11.80;1.00
336;DHT22;156;48.738;9.228;2022-12-29T10:44:42;11.80;1.00
336;DHT22;156;48.738;9.228;2022-12-29T10:47:13;11.80;1.00
336;DHT22;156;48.738;9.228;2022-12-29T10:49:44;11.80;1.00
336;DHT22;156;48.738;9.228;2022-12-29T10:52:14;11.80;1.00
336;DHT22;156;48.738;9.228;2022-12-29T10:54:47;12.00;1.00
336;DHT22;156;48.738;9.228;2022-12-29T10:57:24;12.00;1.00
336;DHT22;156;48.738;9.228;2022-12-29T10:59:52;11.80;1.00
336;DHT22;156;48.738;9.228;2022-12-29T11:02:48;11.90;1.00
336;DHT22;156;48.738;9.228;2022-12-29T11:05:44;11.90;1.00
336;DHT22;156;48.738;9.228;2022-12-29T11:08:19;11.80;1.00
336;DHT22;156;48.738;9.228;2022-12-29T11:10:58;11.80;1.00
336;DHT22;156;48.738;9.228;2022-12-29T11:13:27;11.80;1.00
336;DHT22;156;48.738;9.228;2022-12-29T11:15:54;11.80;1.00
336;DHT22;156;48.738;9.228;2022-12-29T11:18:24;11.90;1.00
336;DHT22;156;48.738;9.228;2022-12-29T11:20:54;11.90;1.00
336;DHT22;156;48.738;9.228;2022-12-29T11:23:25;11.90;1.00
336;DHT22;156;48.738;9.228;2022-12-29T11:26:16;12.00;1.00
336;DHT22;156;48.738;9.228;2022-12-29T11:28:44;12.10;1.00
336;DHT22;156;48.738;9.228;2022-12-29T11:31:16;12.20;1.00
336;DHT22;156;48.738;9.228;2022-12-29T11:33:43;12.20;1.00
336;DHT22;156;48.738;9.228;2022-12-29T11:36:13;12.20;1.00
336;DHT22;156;48.738;9.228;2022-12-29T11:38:46;12.20;1.00
336;DHT22;156;48.738;9.228;2022-12-29T11:41:20;12.20;1.00
336;DHT22;156;48.738;9.228;2022-12-29T11:43:48;12.10;1.00
336;DHT22;156;48.738;9.228;2022-12-29T11:46:18;12.00;1.00
336;DHT22;156;48.738;9.228;2022-12-29T11:48:46;11.90;1.00
336;DHT22;156;48.738;9.228;2022-12-29T11:51:22;12.00;1.00
336;DHT22;156;48.738;9.228;2022-12-29T11:53:53;11.90;1.00
336;DHT22;156;48.738;9.228;2022-12-29T11:56:33;12.00;1.00
336;DHT22;156;48.738;9.228;2022-12-29T11:59:36;12.00;1.00
336;DHT22;156;48.738;9.228;2022-12-29T12:02:24;12.00;1.00
336;DHT22;156;48.738;9.228;2022-12-29T12:04:58;12.00;1.00
336;DHT22;156;48.738;9.228;2022-12-29T12:07:37;11.90;1.00
336;DHT22;156;48.738;9.228;2022-12-29T12:10:16;11.90;1.00
336;DHT22;156;48.738;9.228;2022-12-29T12:12:48;11.80;1.00
336;DHT22;156;48.738;9.228;2022-12-29T12:15:20;11.70;1.00
336;DHT22;156;48.738;9.228;2022-12-29T12:17:51;11.70;1.00
336;DHT22;156;48.738;9.228;2022-12-29T12:20:22;11.80;1.00
336;DHT22;156;48.738;9.228;2022-12-29T12:22:58;11.80;1.00
336;DHT22;156;48.738;9.228;2022-12-29T12:25:34;11.70;1.00
336;DHT22;156;48.738;9.228;2022-12-29T12:28:10;11.60;1.00
336;DHT22;156;48.738;9.228;2022-12-29T12:30:43;11.60;1.00
336;DHT22;156;48.738;9.228;2022-12-29T12:33:18;11.70;1.00
336;DHT22;156;48.738;9.228;2022-12-29T12:36:04;11.70;1.00
336;DHT22;156;48.738;9.228;2022-12-29T12:38:39;11.60;1.00
336;DHT22;156;48.738;9.228;2022-12-29T12:41:11;11.50;1.00
336;DHT22;156;48.738;9.228;2022-12-29T12:43:43;11.40;1.00
336;DHT22;156;48.738;9.228;2022-12-29T12:46:37;11.30;1.00
336;DHT22;156;48.738;9.228;2022-12-29T12:49:42;11.10;1.00
336;DHT22;156;48.738;9.228;2022-12-29T12:52:23;11.10;1.00
336;DHT22;156;48.738;9.228;2022-12-29T12:55:06;11.10;1.00
336;DHT22;156;48.738;9.228;2022-12-29T12:57:48;11.10;1.00
336;DHT22;156;48.738;9.228;2022-12-29T13:00:20;11.10;1.00
336;DHT22;156;48.738;9.228;2022-12-29T13:02:59;11.20;1.00
336;DHT22;156;48.738;9.228;2022-12-29T13:05:38;11.20;1.00
336;DHT22;156;48.738;9.228;2022-12-29T13:08:36;11.20;1.00
336;DHT22;156;48.738;9.228;2022-12-29T13:11:14;11.20;1.00
336;DHT22;156;48.738;9.228;2022-12-29T13:14:11;11.40;1.00
336;DHT22;156;48.738;9.228;2022-12-29T13:16:48;11.50;1.00
336;DHT22;156;48.738;9.228;2022-12-29T13:19:23;11.50;1.00
336;DHT22;156;48.738;9.228;2022-12-29T13:22:00;11.60;1.00
336;DHT22;156;48.738;9.228;2022-12-29T13:24:36;11.60;1.00
336;DHT22;156;48.738;9.228;2022-12-29T13:27:09;11.50;1.00
336;DHT22;156;48.738;9.228;2022-12-29T13:29:45;11.70;1.00
336;DHT22;156;48.738;9.228;2022-12-29T13:32:36;11.70;1.00
336;DHT22;156;48.738;9.228;2022-12-29T13:35:17;11.60;1.00
336;DHT22;156;48.738;9.228;2022-12-29T13:37:50;11.40;1.00
336;DHT22;156;48.738;9.228;2022-12-29T13:40:21;11.40;1.00
336;DHT22;156;48.738;9.228;2022-12-29T13:42:50;11.20;1.00
336;DHT22;156;48.738;9.228;2022-12-29T13:45:22;11.20;1.00
336;DHT22;156;48.738;9.228;2022-12-29T13:47:54;11.20;1.00
336;DHT22;156;48.738;9.228;2022-12-29T13:50:24;11.20;1.00
336;DHT22;156;48.738;9.228;2022-12-29T13:53:01;11.20;1.00
336;DHT22;156;48.738;9.228;2022-12-29T13:55:36;11.20;1.00
336;DHT22;156;48.738;9.228;2022-12-29T13:58:09;11.20;1.00
336;DHT22;156;48.738;9.228;2022-12-29T14:00:53;11.20;1.00
336;DHT22;156;48.738;9.228;2022-12-29T14:06:21;11.20;1.00
336;DHT22;156;48.738;9.228;2022-12-29T14:08:50;11.20;1.00
336;DHT22;156;48.738;9.228;2022-12-29T14:11:21;11.30;1.00
336;DHT22;156;48.738;9.228;2022-12-29T14:13:50;11.40;1.00
336;DHT22;156;48.738;9.228;2022-12-29T14:16:42;11.30;1.00
336;DHT22;156;48.738;9.228;2022-12-29T14:19:14;11.30;1.00
336;DHT22;156;48.738;9.228;2022-12-29T14:21:51;11.30;1.00
336;DHT22;156;48.738;9.228;2022-12-29T14:24:39;11.30;1.00
336;DHT22;156;48.738;9.228;2022-12-29T14:27:50;11.10;1.00
336;DHT22;156;48.738;9.228;2022-12-29T14:30:48;11.10;1.00
336;DHT22;156;48.738;9.228;2022-12-29T14:33:18;11.10;1.00
336;DHT22;156;48.738;9.228;2022-12-29T14:35:47;11.10;1.00
336;DHT22;156;48.738;9.228;2022-12-29T14:38:28;11.20;1.00
336;DHT22;156;48.738;9.228;2022-12-29T14:41:27;11.20;1.00
336;DHT22;156;48.738;9.228;2022-12-29T14:44:01;11.10;1.00
336;DHT22;156;48.738;9.228;2022-12-29T14:46:47;11.10;1.00
336;DHT22;156;48.738;9.228;2022-12-29T14:49:19;11.10;1.00
336;DHT22;156;48.738;9.228;2022-12-29T14:51:49;11.10;1.00
336;DHT22;156;48.738;9.228;2022-12-29T14:54:44;11.10;1.00
336;DHT22;156;48.738;9.228;2022-12-29T14:57:19;11.10;1.00
336;DHT22;156;48.738;9.228;2022-12-29T14:59:48;11.10;1.00
336;DHT22;156;48.738;9.228;2022-12-29T15:02:22;11.10;1.00
336;DHT22;156;48.738;9.228;2022-12-29T15:04:51;11.00;1.00
336;DHT22;156;48.738;9.228;2022-12-29T15:07:19;11.00;1.00
336;DHT22;156;48.738;9.228;2022-12-29T15:09:53;11.00;1.00
336;DHT22;156;48.738;9.228;2022-12-29T15:12:27;11.00;1.00
336;DHT22;156;48.738;9.228;2022-12-29T15:14:57;11.00;1.00
336;DHT22;156;48.738;9.228;2022-12-29T15:17:27;11.00;1.00
336;DHT22;156;48.738;9.228;2022-12-29T15:19:57;11.00;1.00
336;DHT22;156;48.738;9.228;2022-12-29T15:22:25;10.90;1.00
336;DHT22;156;48.738;9.228;2022-12-29T15:24:53;10.90;1.00
336;DHT22;156;48.738;9.228;2022-12-29T15:27:22;10.90;1.00
336;DHT22;156;48.738;9.228;2022-12-29T15:29:56;10.90;1.00
336;DHT22;156;48.738;9.228;2022-12-29T15:32:24;10.80;1.00
336;DHT22;156;48.738;9.228;2022-12-29T15:34:54;10.90;1.00
336;DHT22;156;48.738;9.228;2022-12-29T15:37:25;10.90;1.00
336;DHT22;156;48.738;9.228;2022-12-29T15:39:55;10.90;1.00
336;DHT22;156;48.738;9.228;2022-12-29T15:42:49;10.80;1.00
336;DHT22;156;48.738;9.228;2022-12-29T15:45:19;10.80;1.00
336;DHT22;156;48.738;9.228;2022-12-29T15:47:47;10.80;1.00
336;DHT22;156;48.738;9.228;2022-12-29T15:50:22;10.90;1.00
336;DHT22;156;48.738;9.228;2022-12-29T15:52:51;10.90;1.00
336;DHT22;156;48.738;9.228;2022-12-29T15:55:21;10.90;1.00
336;DHT22;156;48.738;9.228;2022-12-29T15:57:56;11.00;1.00
336;DHT22;156;48.738;9.228;2022-12-29T16:00:25;11.00;1.00
336;DHT22;156;48.738;9.228;2022-12-29T16:02:53;11.00;1.00
336;DHT22;156;48.738;9.228;2022-12-29T16:05:20;11.00;1.00
336;DHT22;156;48.738;9.228;2022-12-29T16:07:56;11.10;1.00
336;DHT22;156;48.738;9.228;2022-12-29T16:10:32;11.10;1.00
336;DHT22;156;48.738;9.228;2022-12-29T16:13:10;11.10;1.00
336;DHT22;156;48.738;9.228;2022-12-29T16:15:39;11.10;1.00
336;DHT22;156;48.738;9.228;2022-12-29T16:18:20;11.10;1.00
336;DHT22;156;48.738;9.228;2022-12-29T16:20:49;10.60;1.00
336;DHT22;156;48.738;9.228;2022-12-29T16:23:19;10.40;1.00
336;DHT22;156;48.738;9.228;2022-12-29T16:25:47;10.20;1.00
336;DHT22;156;48.738;9.228;2022-12-29T16:28:18;10.10;1.00
336;DHT22;156;48.738;9.228;2022-12-29T16:30:46;10.00;1.00
336;DHT22;156;48.738;9.228;2022-12-29T16:33:32;9.90;1.00
336;DHT22;156;48.738;9.228;2022-12-29T16:36:02;9.80;1.00
336;DHT22;156;48.738;9.228;2022-12-29T16:38:33;9.70;1.00
336;DHT22;156;48.738;9.228;2022-12-29T16:41:02;9.50;1.00
336;DHT22;156;48.738;9.228;2022-12-29T16:43:30;9.50;1.00
336;DHT22;156;48.738;9.228;2022-12-29T16:46:17;9.50;1.00
336;DHT22;156;48.738;9.228;2022-12-29T16:48:51;9.50;1.00
336;DHT22;156;48.738;9.228;2022-12-29T16:51:23;9.40;1.60
336;DHT22;156;48.738;9.228;2022-12-29T16:53:56;9.40;5.60
336;DHT22;156;48.738;9.228;2022-12-29T16:56:26;9.30;9.70
336;DHT22;156;48.738;9.228;2022-12-29T16:59:02;9.30;13.00
336;DHT22;156;48.738;9.228;2022-12-29T17:01:30;9.40;14.00
336;DHT22;156;48.738;9.228;2022-12-29T17:04:00;9.40;15.20
336;DHT22;156;48.738;9.228;2022-12-29T17:06:31;9.30;15.80
336;DHT22;156;48.738;9.228;2022-12-29T17:08:59;9.30;18.40
336;DHT22;156;48.738;9.228;2022-12-29T17:11:29;9.20;22.50
336;DHT22;156;48.738;9.228;2022-12-29T17:17:03;9.20;27.00
336;DHT22;156;48.738;9.228;2022-12-29T17:19:32;9.10;31.00
336;DHT22;156;48.738;9.228;2022-12-29T17:22:00;9.10;29.90
336;DHT22;156;48.738;9.228;2022-12-29T17:24:29;9.10;30.70
336;DHT22;156;48.738;9.228;2022-12-29T17:26:58;9.10;31.60
336;DHT22;156;48.738;9.228;2022-12-29T17:29:31;9.00;35.40
336;DHT22;156;48.738;9.228;2022-12-29T17:32:00;9.00;38.60
336;DHT22;156;48.738;9.228;2022-12-29T17:34:27;9.00;37.90